Weather at Beijing Capital International Airport

Public forecast

Using degrees Celsius for public forecast. Weather courtesy of forecast.io.

Current aviation weather report (METAR) for Beijing Capital International Airport

Retrieved 2020/09/23 08:30 UTC (0 seconds ago):

ZBAA 230830Z VRB01MPS 9999 -RA FEW010 18/16 Q1017 NOSIG

Aviation forecast (TAF) for Beijing Capital International Airport

Retrieved 2020/09/23 06:03 UTC (2 hours ago):

TAF TAF ZBAA 230303Z 2306/2406 19004MPS 3500 -RA BR BKN040 TX22/2307Z TN17/2321Z TEMPO 2310/2313 -TSRA FEW033CB BKN040